sensor_id;sensor_type;location;lat;lon;timestamp;P1;durP1;ratioP1;P2;durP2;ratioP2
5428;SDS011;2737;52.386;9.980;2022-12-24T00:01:37;8.53;;;4.13;;
5428;SDS011;2737;52.386;9.980;2022-12-24T00:04:05;6.73;;;4.40;;
5428;SDS011;2737;52.386;9.980;2022-12-24T00:06:32;6.00;;;4.37;;
5428;SDS011;2737;52.386;9.980;2022-12-24T00:08:59;7.93;;;5.30;;
5428;SDS011;2737;52.386;9.980;2022-12-24T00:11:26;7.17;;;5.00;;
5428;SDS011;2737;52.386;9.980;2022-12-24T00:13:53;8.93;;;5.73;;
5428;SDS011;2737;52.386;9.980;2022-12-24T00:16:21;6.77;;;4.90;;
5428;SDS011;2737;52.386;9.980;2022-12-24T00:18:49;10.80;;;5.27;;
5428;SDS011;2737;52.386;9.980;2022-12-24T00:21:16;8.27;;;5.37;;
5428;SDS011;2737;52.386;9.980;2022-12-24T00:23:43;8.40;;;5.43;;
5428;SDS011;2737;52.386;9.980;2022-12-24T00:26:10;6.97;;;4.97;;
5428;SDS011;2737;52.386;9.980;2022-12-24T00:28:38;8.90;;;5.20;;
5428;SDS011;2737;52.386;9.980;2022-12-24T00:31:08;9.70;;;6.20;;
5428;SDS011;2737;52.386;9.980;2022-12-24T00:33:39;10.07;;;5.77;;
5428;SDS011;2737;52.386;9.980;2022-12-24T00:36:06;10.60;;;6.30;;
5428;SDS011;2737;52.386;9.980;2022-12-24T00:38:34;9.07;;;5.90;;
5428;SDS011;2737;52.386;9.980;2022-12-24T00:41:01;10.40;;;6.67;;
5428;SDS011;2737;52.386;9.980;2022-12-24T00:43:30;9.23;;;6.37;;
5428;SDS011;2737;52.386;9.980;2022-12-24T00:45:58;8.50;;;5.43;;
5428;SDS011;2737;52.386;9.980;2022-12-24T00:48:25;12.20;;;6.80;;
5428;SDS011;2737;52.386;9.980;2022-12-24T00:50:53;8.87;;;5.70;;
5428;SDS011;2737;52.386;9.980;2022-12-24T00:53:20;14.83;;;5.53;;
5428;SDS011;2737;52.386;9.980;2022-12-24T00:55:47;9.07;;;5.20;;
5428;SDS011;2737;52.386;9.980;2022-12-24T00:58:14;9.10;;;6.00;;
5428;SDS011;2737;52.386;9.980;2022-12-24T01:00:41;8.40;;;5.60;;
5428;SDS011;2737;52.386;9.980;2022-12-24T01:03:09;8.07;;;5.60;;
5428;SDS011;2737;52.386;9.980;2022-12-24T01:05:36;10.20;;;5.13;;
5428;SDS011;2737;52.386;9.980;2022-12-24T01:08:03;10.47;;;5.27;;
5428;SDS011;2737;52.386;9.980;2022-12-24T01:10:30;10.33;;;5.50;;
5428;SDS011;2737;52.386;9.980;2022-12-24T01:12:59;8.30;;;5.93;;
5428;SDS011;2737;52.386;9.980;2022-12-24T01:15:27;9.83;;;6.40;;
5428;SDS011;2737;52.386;9.980;2022-12-24T01:17:54;8.00;;;5.50;;
5428;SDS011;2737;52.386;9.980;2022-12-24T01:20:22;9.47;;;6.10;;
5428;SDS011;2737;52.386;9.980;2022-12-24T01:22:51;9.73;;;6.27;;
5428;SDS011;2737;52.386;9.980;2022-12-24T01:25:19;8.37;;;5.13;;
5428;SDS011;2737;52.386;9.980;2022-12-24T01:27:46;9.43;;;6.33;;
5428;SDS011;2737;52.386;9.980;2022-12-24T01:30:13;11.70;;;6.10;;
5428;SDS011;2737;52.386;9.980;2022-12-24T01:32:40;9.03;;;5.67;;
5428;SDS011;2737;52.386;9.980;2022-12-24T01:35:07;7.83;;;5.53;;
5428;SDS011;2737;52.386;9.980;2022-12-24T01:37:35;9.70;;;5.43;;
5428;SDS011;2737;52.386;9.980;2022-12-24T01:40:02;8.30;;;5.67;;
5428;SDS011;2737;52.386;9.980;2022-12-24T01:42:51;10.17;;;5.27;;
5428;SDS011;2737;52.386;9.980;2022-12-24T01:45:41;10.00;;;6.10;;
5428;SDS011;2737;52.386;9.980;2022-12-24T01:48:16;8.17;;;5.70;;
5428;SDS011;2737;52.386;9.980;2022-12-24T01:50:49;8.93;;;5.87;;
5428;SDS011;2737;52.386;9.980;2022-12-24T01:53:23;9.13;;;5.77;;
5428;SDS011;2737;52.386;9.980;2022-12-24T01:55:50;12.20;;;6.40;;
5428;SDS011;2737;52.386;9.980;2022-12-24T01:58:20;10.27;;;6.97;;
5428;SDS011;2737;52.386;9.980;2022-12-24T02:00:49;10.40;;;6.73;;
5428;SDS011;2737;52.386;9.980;2022-12-24T02:03:16;9.17;;;6.20;;
5428;SDS011;2737;52.386;9.980;2022-12-24T02:05:45;8.90;;;6.00;;
5428;SDS011;2737;52.386;9.980;2022-12-24T02:08:14;10.10;;;6.40;;
5428;SDS011;2737;52.386;9.980;2022-12-24T02:10:42;13.93;;;6.70;;
5428;SDS011;2737;52.386;9.980;2022-12-24T02:13:09;11.30;;;7.00;;
5428;SDS011;2737;52.386;9.980;2022-12-24T02:15:41;11.40;;;7.40;;
5428;SDS011;2737;52.386;9.980;2022-12-24T02:18:20;8.77;;;6.10;;
5428;SDS011;2737;52.386;9.980;2022-12-24T02:30:07;11.70;;;6.40;;
5428;SDS011;2737;52.386;9.980;2022-12-24T02:32:45;10.13;;;6.50;;
5428;SDS011;2737;52.386;9.980;2022-12-24T02:35:23;9.17;;;6.37;;
5428;SDS011;2737;52.386;9.980;2022-12-24T02:38:02;11.77;;;7.30;;
5428;SDS011;2737;52.386;9.980;2022-12-24T02:40:35;11.93;;;7.37;;
5428;SDS011;2737;52.386;9.980;2022-12-24T02:43:07;12.30;;;7.40;;
5428;SDS011;2737;52.386;9.980;2022-12-24T02:45:39;15.27;;;8.53;;
5428;SDS011;2737;52.386;9.980;2022-12-24T02:48:11;10.97;;;7.30;;
5428;SDS011;2737;52.386;9.980;2022-12-24T02:50:52;13.20;;;7.53;;
5428;SDS011;2737;52.386;9.980;2022-12-24T02:53:20;10.40;;;7.40;;
5428;SDS011;2737;52.386;9.980;2022-12-24T02:55:49;16.20;;;7.70;;
5428;SDS011;2737;52.386;9.980;2022-12-24T02:58:32;11.07;;;7.30;;
5428;SDS011;2737;52.386;9.980;2022-12-24T03:01:10;12.17;;;8.10;;
5428;SDS011;2737;52.386;9.980;2022-12-24T03:03:46;13.33;;;7.83;;
5428;SDS011;2737;52.386;9.980;2022-12-24T03:06:23;11.47;;;7.80;;
5428;SDS011;2737;52.386;9.980;2022-12-24T03:08:59;13.07;;;7.60;;
5428;SDS011;2737;52.386;9.980;2022-12-24T03:11:32;10.13;;;7.00;;
5428;SDS011;2737;52.386;9.980;2022-12-24T03:14:01;14.90;;;7.30;;
5428;SDS011;2737;52.386;9.980;2022-12-24T03:16:30;12.27;;;7.40;;
5428;SDS011;2737;52.386;9.980;2022-12-24T03:18:57;13.60;;;8.33;;
5428;SDS011;2737;52.386;9.980;2022-12-24T03:21:27;10.60;;;7.20;;
5428;SDS011;2737;52.386;9.980;2022-12-24T03:23:56;14.47;;;7.20;;
5428;SDS011;2737;52.386;9.980;2022-12-24T03:26:24;11.47;;;7.23;;
5428;SDS011;2737;52.386;9.980;2022-12-24T03:28:53;11.60;;;5.87;;
5428;SDS011;2737;52.386;9.980;2022-12-24T03:31:20;13.60;;;6.80;;
5428;SDS011;2737;52.386;9.980;2022-12-24T03:33:49;13.23;;;5.50;;
5428;SDS011;2737;52.386;9.980;2022-12-24T03:36:16;20.10;;;6.87;;
5428;SDS011;2737;52.386;9.980;2022-12-24T03:38:43;15.43;;;5.30;;
5428;SDS011;2737;52.386;9.980;2022-12-24T03:41:10;21.97;;;4.60;;
5428;SDS011;2737;52.386;9.980;2022-12-24T03:43:37;18.53;;;4.10;;
5428;SDS011;2737;52.386;9.980;2022-12-24T03:46:05;13.93;;;3.70;;
5428;SDS011;2737;52.386;9.980;2022-12-24T03:48:33;27.20;;;4.97;;
5428;SDS011;2737;52.386;9.980;2022-12-24T03:51:02;13.70;;;3.37;;
5428;SDS011;2737;52.386;9.980;2022-12-24T03:53:29;17.53;;;4.20;;
5428;SDS011;2737;52.386;9.980;2022-12-24T03:55:56;22.47;;;4.07;;
5428;SDS011;2737;52.386;9.980;2022-12-24T03:58:24;18.00;;;3.70;;
5428;SDS011;2737;52.386;9.980;2022-12-24T04:00:51;16.20;;;3.80;;
5428;SDS011;2737;52.386;9.980;2022-12-24T04:03:18;27.83;;;4.40;;
5428;SDS011;2737;52.386;9.980;2022-12-24T04:05:46;23.70;;;4.60;;
5428;SDS011;2737;52.386;9.980;2022-12-24T04:08:14;20.53;;;4.20;;
5428;SDS011;2737;52.386;9.980;2022-12-24T04:10:41;21.43;;;5.37;;
5428;SDS011;2737;52.386;9.980;2022-12-24T04:13:08;16.83;;;4.50;;
5428;SDS011;2737;52.386;9.980;2022-12-24T04:15:35;14.23;;;4.40;;
5428;SDS011;2737;52.386;9.980;2022-12-24T04:18:02;26.07;;;5.20;;
5428;SDS011;2737;52.386;9.980;2022-12-24T04:20:29;27.70;;;5.40;;
5428;SDS011;2737;52.386;9.980;2022-12-24T04:22:57;19.63;;;3.90;;
5428;SDS011;2737;52.386;9.980;2022-12-24T04:25:25;21.63;;;5.10;;
5428;SDS011;2737;52.386;9.980;2022-12-24T04:27:52;17.33;;;3.70;;
5428;SDS011;2737;52.386;9.980;2022-12-24T04:30:19;26.60;;;5.27;;
5428;SDS011;2737;52.386;9.980;2022-12-24T04:32:46;21.40;;;4.13;;
5428;SDS011;2737;52.386;9.980;2022-12-24T04:35:13;28.23;;;3.73;;
5428;SDS011;2737;52.386;9.980;2022-12-24T04:37:41;17.07;;;3.50;;
5428;SDS011;2737;52.386;9.980;2022-12-24T04:40:08;16.07;;;3.23;;
5428;SDS011;2737;52.386;9.980;2022-12-24T04:42:37;17.60;;;4.00;;
5428;SDS011;2737;52.386;9.980;2022-12-24T04:45:04;19.33;;;3.93;;
5428;SDS011;2737;52.386;9.980;2022-12-24T04:47:32;22.87;;;4.10;;
5428;SDS011;2737;52.386;9.980;2022-12-24T04:49:59;13.60;;;3.97;;
5428;SDS011;2737;52.386;9.980;2022-12-24T04:52:26;21.67;;;3.10;;
5428;SDS011;2737;52.386;9.980;2022-12-24T04:54:53;27.60;;;4.10;;
5428;SDS011;2737;52.386;9.980;2022-12-24T04:57:20;24.03;;;3.70;;
5428;SDS011;2737;52.386;9.980;2022-12-24T04:59:49;22.67;;;3.20;;
5428;SDS011;2737;52.386;9.980;2022-12-24T05:02:16;15.77;;;2.67;;
5428;SDS011;2737;52.386;9.980;2022-12-24T05:04:43;24.50;;;3.83;;
5428;SDS011;2737;52.386;9.980;2022-12-24T05:07:10;12.80;;;3.73;;
5428;SDS011;2737;52.386;9.980;2022-12-24T05:09:37;23.67;;;4.00;;
5428;SDS011;2737;52.386;9.980;2022-12-24T05:12:04;29.87;;;4.33;;
5428;SDS011;2737;52.386;9.980;2022-12-24T05:14:31;18.20;;;2.97;;
5428;SDS011;2737;52.386;9.980;2022-12-24T05:17:00;14.93;;;3.70;;
5428;SDS011;2737;52.386;9.980;2022-12-24T05:19:27;15.93;;;3.87;;
5428;SDS011;2737;52.386;9.980;2022-12-24T05:21:54;18.53;;;3.33;;
5428;SDS011;2737;52.386;9.980;2022-12-24T05:24:35;26.77;;;4.57;;
5428;SDS011;2737;52.386;9.980;2022-12-24T05:27:19;20.03;;;3.80;;
5428;SDS011;2737;52.386;9.980;2022-12-24T05:29:47;15.90;;;3.60;;
5428;SDS011;2737;52.386;9.980;2022-12-24T05:32:15;22.40;;;2.80;;
5428;SDS011;2737;52.386;9.980;2022-12-24T05:34:42;19.73;;;2.83;;
5428;SDS011;2737;52.386;9.980;2022-12-24T05:37:09;14.80;;;3.87;;
5428;SDS011;2737;52.386;9.980;2022-12-24T05:39:36;18.07;;;3.00;;
5428;SDS011;2737;52.386;9.980;2022-12-24T05:42:03;19.17;;;3.63;;
5428;SDS011;2737;52.386;9.980;2022-12-24T05:44:30;18.37;;;2.50;;
5428;SDS011;2737;52.386;9.980;2022-12-24T05:46:57;19.20;;;3.10;;
5428;SDS011;2737;52.386;9.980;2022-12-24T05:49:26;16.13;;;2.80;;
5428;SDS011;2737;52.386;9.980;2022-12-24T05:51:53;15.67;;;2.63;;
5428;SDS011;2737;52.386;9.980;2022-12-24T05:54:20;31.47;;;3.53;;
5428;SDS011;2737;52.386;9.980;2022-12-24T05:56:47;21.33;;;2.83;;
5428;SDS011;2737;52.386;9.980;2022-12-24T05:59:14;13.73;;;2.90;;
5428;SDS011;2737;52.386;9.980;2022-12-24T06:01:41;23.50;;;4.03;;
5428;SDS011;2737;52.386;9.980;2022-12-24T06:04:11;18.93;;;3.63;;
5428;SDS011;2737;52.386;9.980;2022-12-24T06:06:39;23.67;;;3.10;;
5428;SDS011;2737;52.386;9.980;2022-12-24T06:09:06;18.50;;;2.97;;
5428;SDS011;2737;52.386;9.980;2022-12-24T06:11:34;22.27;;;3.43;;
5428;SDS011;2737;52.386;9.980;2022-12-24T06:14:01;23.37;;;4.33;;
5428;SDS011;2737;52.386;9.980;2022-12-24T06:16:28;20.73;;;4.83;;
5428;SDS011;2737;52.386;9.980;2022-12-24T06:18:55;14.77;;;2.87;;
5428;SDS011;2737;52.386;9.980;2022-12-24T06:21:22;30.43;;;4.20;;
5428;SDS011;2737;52.386;9.980;2022-12-24T06:23:50;18.80;;;3.83;;
5428;SDS011;2737;52.386;9.980;2022-12-24T06:26:19;26.63;;;4.10;;
5428;SDS011;2737;52.386;9.980;2022-12-24T06:28:47;25.83;;;3.60;;
5428;SDS011;2737;52.386;9.980;2022-12-24T06:31:16;20.50;;;4.67;;
5428;SDS011;2737;52.386;9.980;2022-12-24T06:33:45;25.47;;;4.50;;
5428;SDS011;2737;52.386;9.980;2022-12-24T06:36:13;14.30;;;3.80;;
5428;SDS011;2737;52.386;9.980;2022-12-24T06:38:42;16.97;;;3.13;;
5428;SDS011;2737;52.386;9.980;2022-12-24T06:41:10;24.03;;;3.90;;
5428;SDS011;2737;52.386;9.980;2022-12-24T06:43:37;17.20;;;3.87;;
5428;SDS011;2737;52.386;9.980;2022-12-24T06:46:04;24.73;;;3.97;;
5428;SDS011;2737;52.386;9.980;2022-12-24T06:48:32;27.30;;;4.03;;
5428;SDS011;2737;52.386;9.980;2022-12-24T06:51:00;18.83;;;4.20;;
5428;SDS011;2737;52.386;9.980;2022-12-24T06:53:27;21.00;;;3.73;;
5428;SDS011;2737;52.386;9.980;2022-12-24T06:55:59;27.07;;;4.23;;
5428;SDS011;2737;52.386;9.980;2022-12-24T06:58:28;13.63;;;3.57;;
5428;SDS011;2737;52.386;9.980;2022-12-24T07:00:56;23.43;;;4.40;;
5428;SDS011;2737;52.386;9.980;2022-12-24T07:03:23;24.60;;;4.53;;
5428;SDS011;2737;52.386;9.980;2022-12-24T07:05:50;24.87;;;4.07;;
5428;SDS011;2737;52.386;9.980;2022-12-24T07:08:17;29.23;;;4.37;;
5428;SDS011;2737;52.386;9.980;2022-12-24T07:10:44;16.23;;;4.10;;
5428;SDS011;2737;52.386;9.980;2022-12-24T07:13:11;25.77;;;4.27;;
5428;SDS011;2737;52.386;9.980;2022-12-24T07:15:39;16.20;;;3.10;;
5428;SDS011;2737;52.386;9.980;2022-12-24T07:18:06;17.13;;;3.50;;
5428;SDS011;2737;52.386;9.980;2022-12-24T07:20:34;20.97;;;3.00;;
5428;SDS011;2737;52.386;9.980;2022-12-24T07:23:01;24.00;;;4.47;;
5428;SDS011;2737;52.386;9.980;2022-12-24T07:25:28;22.37;;;4.00;;
5428;SDS011;2737;52.386;9.980;2022-12-24T07:27:55;12.60;;;3.53;;
5428;SDS011;2737;52.386;9.980;2022-12-24T07:30:22;19.70;;;3.60;;
5428;SDS011;2737;52.386;9.980;2022-12-24T07:32:50;19.80;;;4.20;;
5428;SDS011;2737;52.386;9.980;2022-12-24T07:35:17;23.80;;;5.20;;
5428;SDS011;2737;52.386;9.980;2022-12-24T07:37:44;20.33;;;4.53;;
5428;SDS011;2737;52.386;9.980;2022-12-24T07:40:11;19.50;;;3.50;;
5428;SDS011;2737;52.386;9.980;2022-12-24T07:42:39;23.70;;;3.03;;
5428;SDS011;2737;52.386;9.980;2022-12-24T07:45:06;18.70;;;3.73;;
5428;SDS011;2737;52.386;9.980;2022-12-24T07:47:34;14.73;;;3.20;;
5428;SDS011;2737;52.386;9.980;2022-12-24T07:50:02;20.70;;;3.40;;
5428;SDS011;2737;52.386;9.980;2022-12-24T07:52:30;16.00;;;3.30;;
5428;SDS011;2737;52.386;9.980;2022-12-24T07:54:57;31.83;;;4.40;;
5428;SDS011;2737;52.386;9.980;2022-12-24T07:57:24;26.13;;;3.13;;
5428;SDS011;2737;52.386;9.980;2022-12-24T07:59:51;19.87;;;3.40;;
5428;SDS011;2737;52.386;9.980;2022-12-24T08:02:18;19.97;;;3.83;;
5428;SDS011;2737;52.386;9.980;2022-12-24T08:04:45;18.93;;;3.30;;
5428;SDS011;2737;52.386;9.980;2022-12-24T08:07:14;22.83;;;3.47;;
5428;SDS011;2737;52.386;9.980;2022-12-24T08:09:41;33.20;;;5.20;;
5428;SDS011;2737;52.386;9.980;2022-12-24T08:12:10;25.80;;;3.93;;
5428;SDS011;2737;52.386;9.980;2022-12-24T08:14:37;26.73;;;5.03;;
5428;SDS011;2737;52.386;9.980;2022-12-24T08:17:04;20.97;;;3.70;;
5428;SDS011;2737;52.386;9.980;2022-12-24T08:19:31;17.97;;;3.40;;
5428;SDS011;2737;52.386;9.980;2022-12-24T08:21:58;14.63;;;3.20;;
5428;SDS011;2737;52.386;9.980;2022-12-24T08:24:27;25.13;;;3.60;;
5428;SDS011;2737;52.386;9.980;2022-12-24T08:26:54;21.83;;;3.97;;
5428;SDS011;2737;52.386;9.980;2022-12-24T08:29:21;23.40;;;3.80;;
5428;SDS011;2737;52.386;9.980;2022-12-24T08:31:48;18.90;;;3.23;;
5428;SDS011;2737;52.386;9.980;2022-12-24T08:34:15;23.10;;;4.10;;
5428;SDS011;2737;52.386;9.980;2022-12-24T08:36:42;20.03;;;3.10;;
5428;SDS011;2737;52.386;9.980;2022-12-24T08:39:09;15.23;;;3.33;;
5428;SDS011;2737;52.386;9.980;2022-12-24T08:41:37;27.27;;;3.67;;
5428;SDS011;2737;52.386;9.980;2022-12-24T08:44:04;19.00;;;3.00;;
5428;SDS011;2737;52.386;9.980;2022-12-24T08:46:31;20.10;;;3.80;;
5428;SDS011;2737;52.386;9.980;2022-12-24T08:48:58;11.60;;;2.60;;
5428;SDS011;2737;52.386;9.980;2022-12-24T08:51:26;18.87;;;3.60;;
5428;SDS011;2737;52.386;9.980;2022-12-24T08:53:53;24.47;;;3.80;;
5428;SDS011;2737;52.386;9.980;2022-12-24T08:56:20;17.73;;;3.83;;
5428;SDS011;2737;52.386;9.980;2022-12-24T08:58:48;28.00;;;3.63;;
5428;SDS011;2737;52.386;9.980;2022-12-24T09:01:16;19.33;;;5.10;;
5428;SDS011;2737;52.386;9.980;2022-12-24T09:03:45;16.10;;;3.03;;
5428;SDS011;2737;52.386;9.980;2022-12-24T09:06:12;26.43;;;4.03;;
5428;SDS011;2737;52.386;9.980;2022-12-24T09:08:41;19.83;;;3.33;;
5428;SDS011;2737;52.386;9.980;2022-12-24T09:11:08;15.40;;;3.00;;
5428;SDS011;2737;52.386;9.980;2022-12-24T09:13:37;15.37;;;3.37;;
5428;SDS011;2737;52.386;9.980;2022-12-24T09:16:06;13.83;;;3.40;;
5428;SDS011;2737;52.386;9.980;2022-12-24T09:18:34;21.57;;;3.60;;
5428;SDS011;2737;52.386;9.980;2022-12-24T09:21:01;21.20;;;3.63;;
5428;SDS011;2737;52.386;9.980;2022-12-24T09:23:30;28.40;;;4.43;;
5428;SDS011;2737;52.386;9.980;2022-12-24T09:25:59;22.30;;;5.40;;
5428;SDS011;2737;52.386;9.980;2022-12-24T09:28:30;16.63;;;4.73;;
5428;SDS011;2737;52.386;9.980;2022-12-24T09:30:57;19.40;;;4.77;;
5428;SDS011;2737;52.386;9.980;2022-12-24T09:33:28;14.73;;;4.90;;
5428;SDS011;2737;52.386;9.980;2022-12-24T09:35:57;26.23;;;6.10;;
5428;SDS011;2737;52.386;9.980;2022-12-24T09:38:24;32.20;;;6.03;;
5428;SDS011;2737;52.386;9.980;2022-12-24T09:40:54;22.20;;;6.63;;
5428;SDS011;2737;52.386;9.980;2022-12-24T09:43:22;32.67;;;7.23;;
5428;SDS011;2737;52.386;9.980;2022-12-24T09:45:55;27.53;;;7.17;;
5428;SDS011;2737;52.386;9.980;2022-12-24T09:48:32;33.37;;;7.33;;
5428;SDS011;2737;52.386;9.980;2022-12-24T09:51:05;37.00;;;7.20;;
5428;SDS011;2737;52.386;9.980;2022-12-24T09:53:36;35.60;;;7.97;;
5428;SDS011;2737;52.386;9.980;2022-12-24T09:56:08;38.63;;;7.90;;
5428;SDS011;2737;52.386;9.980;2022-12-24T09:58:39;39.10;;;8.40;;
5428;SDS011;2737;52.386;9.980;2022-12-24T10:01:10;39.60;;;6.70;;
5428;SDS011;2737;52.386;9.980;2022-12-24T10:03:40;31.33;;;7.57;;
5428;SDS011;2737;52.386;9.980;2022-12-24T10:06:08;29.90;;;8.47;;
5428;SDS011;2737;52.386;9.980;2022-12-24T10:08:43;37.60;;;7.93;;
5428;SDS011;2737;52.386;9.980;2022-12-24T10:11:22;36.33;;;7.33;;
5428;SDS011;2737;52.386;9.980;2022-12-24T10:13:58;28.60;;;6.50;;
5428;SDS011;2737;52.386;9.980;2022-12-24T10:16:39;31.27;;;8.03;;
5428;SDS011;2737;52.386;9.980;2022-12-24T10:19:15;33.50;;;7.73;;
5428;SDS011;2737;52.386;9.980;2022-12-24T10:21:49;29.40;;;8.00;;
5428;SDS011;2737;52.386;9.980;2022-12-24T10:24:29;29.67;;;6.93;;
5428;SDS011;2737;52.386;9.980;2022-12-24T10:27:01;26.97;;;7.80;;
5428;SDS011;2737;52.386;9.980;2022-12-24T10:29:33;29.93;;;8.03;;
5428;SDS011;2737;52.386;9.980;2022-12-24T10:32:21;27.50;;;6.60;;
5428;SDS011;2737;52.386;9.980;2022-12-24T10:34:54;25.70;;;6.40;;
5428;SDS011;2737;52.386;9.980;2022-12-24T10:37:27;34.97;;;6.43;;
5428;SDS011;2737;52.386;9.980;2022-12-24T10:39:55;28.83;;;7.03;;
5428;SDS011;2737;52.386;9.980;2022-12-24T10:42:25;33.13;;;8.37;;
5428;SDS011;2737;52.386;9.980;2022-12-24T10:45:01;33.30;;;10.87;;
5428;SDS011;2737;52.386;9.980;2022-12-24T10:47:32;40.27;;;12.40;;
5428;SDS011;2737;52.386;9.980;2022-12-24T10:50:04;45.70;;;14.07;;
5428;SDS011;2737;52.386;9.980;2022-12-24T10:52:39;72.30;;;25.07;;
5428;SDS011;2737;52.386;9.980;2022-12-24T10:55:09;82.07;;;28.47;;
5428;SDS011;2737;52.386;9.980;2022-12-24T10:57:55;32.70;;;8.93;;
5428;SDS011;2737;52.386;9.980;2022-12-24T11:00:25;24.17;;;6.20;;
5428;SDS011;2737;52.386;9.980;2022-12-24T11:03:04;23.67;;;6.90;;
5428;SDS011;2737;52.386;9.980;2022-12-24T11:05:35;26.27;;;7.10;;
5428;SDS011;2737;52.386;9.980;2022-12-24T11:08:04;27.73;;;6.90;;
5428;SDS011;2737;52.386;9.980;2022-12-24T11:10:39;38.03;;;7.90;;
5428;SDS011;2737;52.386;9.980;2022-12-24T11:13:15;26.53;;;6.93;;
5428;SDS011;2737;52.386;9.980;2022-12-24T11:15:48;22.23;;;8.00;;
5428;SDS011;2737;52.386;9.980;2022-12-24T11:18:25;23.27;;;7.63;;
5428;SDS011;2737;52.386;9.980;2022-12-24T11:20:53;25.93;;;5.30;;
5428;SDS011;2737;52.386;9.980;2022-12-24T11:23:23;17.40;;;4.30;;
5428;SDS011;2737;52.386;9.980;2022-12-24T11:25:50;21.10;;;4.80;;
5428;SDS011;2737;52.386;9.980;2022-12-24T11:28:19;20.83;;;4.27;;
5428;SDS011;2737;52.386;9.980;2022-12-24T11:30:58;23.70;;;5.07;;
5428;SDS011;2737;52.386;9.980;2022-12-24T11:33:28;12.33;;;4.33;;
5428;SDS011;2737;52.386;9.980;2022-12-24T11:35:59;16.03;;;4.60;;
5428;SDS011;2737;52.386;9.980;2022-12-24T11:38:28;8.97;;;3.47;;
5428;SDS011;2737;52.386;9.980;2022-12-24T11:40:58;12.57;;;3.70;;
5428;SDS011;2737;52.386;9.980;2022-12-24T11:43:27;20.37;;;4.00;;
5428;SDS011;2737;52.386;9.980;2022-12-24T11:46:34;17.27;;;4.00;;
5428;SDS011;2737;52.386;9.980;2022-12-24T11:49:12;22.23;;;5.00;;
5428;SDS011;2737;52.386;9.980;2022-12-24T11:51:56;11.93;;;4.30;;
5428;SDS011;2737;52.386;9.980;2022-12-24T11:54:48;19.47;;;3.80;;
5428;SDS011;2737;52.386;9.980;2022-12-24T11:57:31;14.93;;;3.90;;
5428;SDS011;2737;52.386;9.980;2022-12-24T12:00:08;17.13;;;4.27;;
5428;SDS011;2737;52.386;9.980;2022-12-24T12:02:37;21.73;;;5.00;;
5428;SDS011;2737;52.386;9.980;2022-12-24T12:05:07;16.87;;;4.50;;
5428;SDS011;2737;52.386;9.980;2022-12-24T12:07:39;20.60;;;4.60;;
5428;SDS011;2737;52.386;9.980;2022-12-24T12:10:13;17.43;;;5.93;;
5428;SDS011;2737;52.386;9.980;2022-12-24T12:12:44;21.23;;;6.70;;
5428;SDS011;2737;52.386;9.980;2022-12-24T12:15:15;22.23;;;4.43;;
5428;SDS011;2737;52.386;9.980;2022-12-24T12:17:47;17.83;;;4.17;;
5428;SDS011;2737;52.386;9.980;2022-12-24T12:20:20;21.43;;;4.10;;
5428;SDS011;2737;52.386;9.980;2022-12-24T12:22:54;18.13;;;3.30;;
5428;SDS011;2737;52.386;9.980;2022-12-24T12:25:26;25.33;;;3.73;;
5428;SDS011;2737;52.386;9.980;2022-12-24T12:27:59;13.47;;;3.20;;
5428;SDS011;2737;52.386;9.980;2022-12-24T12:30:33;14.37;;;3.43;;
5428;SDS011;2737;52.386;9.980;2022-12-24T12:33:03;8.07;;;2.97;;
5428;SDS011;2737;52.386;9.980;2022-12-24T12:35:38;9.33;;;3.10;;
5428;SDS011;2737;52.386;9.980;2022-12-24T12:38:13;11.73;;;3.60;;
5428;SDS011;2737;52.386;9.980;2022-12-24T12:40:56;18.67;;;4.03;;
5428;SDS011;2737;52.386;9.980;2022-12-24T12:43:34;10.47;;;3.20;;
5428;SDS011;2737;52.386;9.980;2022-12-24T12:46:30;17.77;;;2.93;;
5428;SDS011;2737;52.386;9.980;2022-12-24T12:49:11;18.63;;;3.90;;
5428;SDS011;2737;52.386;9.980;2022-12-24T12:51:49;14.97;;;3.33;;
5428;SDS011;2737;52.386;9.980;2022-12-24T12:54:30;13.03;;;3.97;;
5428;SDS011;2737;52.386;9.980;2022-12-24T12:57:07;14.00;;;4.47;;
5428;SDS011;2737;52.386;9.980;2022-12-24T12:59:39;7.30;;;3.50;;
5428;SDS011;2737;52.386;9.980;2022-12-24T13:02:18;11.60;;;3.60;;
5428;SDS011;2737;52.386;9.980;2022-12-24T13:05:02;14.03;;;4.10;;
5428;SDS011;2737;52.386;9.980;2022-12-24T13:11:05;11.40;;;3.00;;
5428;SDS011;2737;52.386;9.980;2022-12-24T13:13:56;21.83;;;3.97;;
5428;SDS011;2737;52.386;9.980;2022-12-24T13:16:48;14.73;;;3.57;;
5428;SDS011;2737;52.386;9.980;2022-12-24T13:19:37;9.17;;;3.20;;
5428;SDS011;2737;52.386;9.980;2022-12-24T13:22:19;17.20;;;4.20;;
5428;SDS011;2737;52.386;9.980;2022-12-24T13:24:47;10.13;;;3.60;;
5428;SDS011;2737;52.386;9.980;2022-12-24T13:27:19;16.40;;;4.20;;
5428;SDS011;2737;52.386;9.980;2022-12-24T13:29:53;12.67;;;3.53;;
5428;SDS011;2737;52.386;9.980;2022-12-24T13:32:38;8.83;;;4.17;;
5428;SDS011;2737;52.386;9.980;2022-12-24T13:35:28;23.30;;;4.60;;
5428;SDS011;2737;52.386;9.980;2022-12-24T13:44:02;14.47;;;5.27;;
5428;SDS011;2737;52.386;9.980;2022-12-24T13:46:46;23.80;;;5.07;;
5428;SDS011;2737;52.386;9.980;2022-12-24T13:49:17;12.50;;;4.10;;
5428;SDS011;2737;52.386;9.980;2022-12-24T13:51:46;14.27;;;4.13;;
5428;SDS011;2737;52.386;9.980;2022-12-24T13:54:16;14.20;;;5.17;;
5428;SDS011;2737;52.386;9.980;2022-12-24T13:56:49;7.13;;;2.43;;
5428;SDS011;2737;52.386;9.980;2022-12-24T13:59:22;8.07;;;2.80;;
5428;SDS011;2737;52.386;9.980;2022-12-24T14:01:59;3.40;;;1.33;;
5428;SDS011;2737;52.386;9.980;2022-12-24T14:04:26;3.73;;;1.47;;
5428;SDS011;2737;52.386;9.980;2022-12-24T14:06:56;4.63;;;1.87;;
5428;SDS011;2737;52.386;9.980;2022-12-24T14:09:25;3.73;;;1.50;;
5428;SDS011;2737;52.386;9.980;2022-12-24T14:17:53;1.97;;;1.50;;
5428;SDS011;2737;52.386;9.980;2022-12-24T14:20:20;6.13;;;1.80;;
5428;SDS011;2737;52.386;9.980;2022-12-24T14:22:47;6.13;;;1.57;;
5428;SDS011;2737;52.386;9.980;2022-12-24T14:25:16;5.23;;;2.07;;
5428;SDS011;2737;52.386;9.980;2022-12-24T14:27:48;4.60;;;1.50;;
5428;SDS011;2737;52.386;9.980;2022-12-24T14:30:20;7.10;;;1.50;;
5428;SDS011;2737;52.386;9.980;2022-12-24T14:32:49;8.83;;;1.90;;
5428;SDS011;2737;52.386;9.980;2022-12-24T14:35:19;11.43;;;2.50;;
5428;SDS011;2737;52.386;9.980;2022-12-24T14:37:50;6.37;;;1.57;;
5428;SDS011;2737;52.386;9.980;2022-12-24T14:40:24;5.50;;;1.77;;
5428;SDS011;2737;52.386;9.980;2022-12-24T14:42:55;5.20;;;1.40;;
5428;SDS011;2737;52.386;9.980;2022-12-24T14:45:27;17.83;;;6.07;;
5428;SDS011;2737;52.386;9.980;2022-12-24T14:48:01;23.43;;;7.50;;
5428;SDS011;2737;52.386;9.980;2022-12-24T14:50:49;11.60;;;5.07;;
5428;SDS011;2737;52.386;9.980;2022-12-24T14:53:25;7.40;;;3.83;;
5428;SDS011;2737;52.386;9.980;2022-12-24T14:56:06;12.87;;;5.07;;
5428;SDS011;2737;52.386;9.980;2022-12-24T14:58:38;12.10;;;4.30;;
5428;SDS011;2737;52.386;9.980;2022-12-24T15:01:18;13.30;;;5.87;;
5428;SDS011;2737;52.386;9.980;2022-12-24T15:03:58;6.10;;;3.57;;
5428;SDS011;2737;52.386;9.980;2022-12-24T15:06:27;13.53;;;4.80;;
5428;SDS011;2737;52.386;9.980;2022-12-24T15:08:57;18.20;;;7.80;;
5428;SDS011;2737;52.386;9.980;2022-12-24T15:11:24;26.07;;;10.20;;
5428;SDS011;2737;52.386;9.980;2022-12-24T15:13:52;25.87;;;10.67;;
5428;SDS011;2737;52.386;9.980;2022-12-24T15:16:22;30.43;;;12.87;;
5428;SDS011;2737;52.386;9.980;2022-12-24T15:18:52;23.70;;;9.80;;
5428;SDS011;2737;52.386;9.980;2022-12-24T15:21:23;41.57;;;14.10;;
5428;SDS011;2737;52.386;9.980;2022-12-24T15:24:03;24.13;;;10.30;;
5428;SDS011;2737;52.386;9.980;2022-12-24T15:26:30;22.63;;;9.17;;
5428;SDS011;2737;52.386;9.980;2022-12-24T15:29:12;25.43;;;10.77;;
5428;SDS011;2737;52.386;9.980;2022-12-24T15:31:51;24.60;;;9.10;;
5428;SDS011;2737;52.386;9.980;2022-12-24T15:34:24;13.53;;;5.30;;
5428;SDS011;2737;52.386;9.980;2022-12-24T15:36:52;28.00;;;9.40;;
5428;SDS011;2737;52.386;9.980;2022-12-24T15:39:29;25.60;;;12.23;;
5428;SDS011;2737;52.386;9.980;2022-12-24T15:41:56;48.00;;;21.40;;
5428;SDS011;2737;52.386;9.980;2022-12-24T15:44:39;17.27;;;7.87;;
5428;SDS011;2737;52.386;9.980;2022-12-24T15:47:13;28.97;;;10.70;;
5428;SDS011;2737;52.386;9.980;2022-12-24T15:49:43;32.87;;;13.90;;